Time;durP1;ratioP1;P1;durP2;ratioP2;P2;SDS_P1;SDS_P2;PMS_P1;PMS_P2;Temp;Humidity;BMP_temperature;BMP_pressure;BME280_temperature;BME280_humidity;BME280_pressure;Samples;Min_cycle;Max_cycle;Signal;HPM_P1;HPM_P2
2024/03/07 00:02:24;;;;;;;22.33;13.27;;;2.10;99.90;;;;;;5076870;28;20221;-60
2024/03/07 00:04:51;;;;;;;17.15;12.27;;;2.10;99.90;;;;;;5075380;28;20205;-60
2024/03/07 00:07:18;;;;;;;17.88;12.95;;;2.10;99.90;;;;;;5074202;28;20201;-60
2024/03/07 00:09:46;;;;;;;20.02;12.40;;;2.00;99.90;;;;;;5075772;28;20211;-60
2024/03/07 00:12:14;;;;;;;15.18;11.45;;;2.00;99.90;;;;;;5075350;28;20236;-61
2024/03/07 00:14:41;;;;;;;18.38;12.98;;;2.00;99.90;;;;;;5074244;28;20701;-61
2024/03/07 00:17:07;;;;;;;16.67;12.50;;;1.90;99.90;;;;;;5075297;28;20224;-61
2024/03/07 00:19:34;;;;;;;15.95;11.23;;;1.90;99.90;;;;;;5074755;28;20205;-60
2024/03/07 00:22:01;;;;;;;25.08;13.23;;;1.90;99.90;;;;;;5073967;28;20601;-62
2024/03/07 00:24:28;;;;;;;22.98;13.27;;;1.90;99.90;;;;;;5073845;28;20205;-61
2024/03/07 00:26:54;;;;;;;23.90;13.70;;;1.90;99.90;;;;;;5074564;28;20204;-61
2024/03/07 00:29:22;;;;;;;17.90;12.57;;;1.90;99.90;;;;;;5076032;28;20664;-60
2024/03/07 00:31:50;;;;;;;20.17;13.63;;;1.90;99.90;;;;;;5079457;28;20252;-60
2024/03/07 00:34:18;;;;;;;20.65;13.55;;;1.90;99.90;;;;;;5080291;28;20201;-60
2024/03/07 00:36:45;;;;;;;15.82;12.35;;;1.90;99.90;;;;;;5078228;28;20197;-61
2024/03/07 00:39:12;;;;;;;18.65;11.55;;;1.80;99.90;;;;;;5078382;28;20304;-61
2024/03/07 00:41:40;;;;;;;17.40;12.82;;;1.80;99.90;;;;;;5077300;28;20315;-60
2024/03/07 00:44:08;;;;;;;16.45;12.20;;;1.80;99.90;;;;;;5077505;28;20205;-61
2024/03/07 00:46:37;;;;;;;15.65;11.75;;;1.70;99.90;;;;;;5077633;28;20201;-60
2024/03/07 00:49:04;;;;;;;16.23;12.13;;;1.70;99.90;;;;;;5077216;28;20689;-61
2024/03/07 00:51:30;;;;;;;15.88;12.25;;;1.70;99.90;;;;;;5077398;28;20260;-61
2024/03/07 00:53:57;;;;;;;14.90;11.20;;;1.70;99.90;;;;;;5082185;28;20205;-60
2024/03/07 00:56:25;;;;;;;17.48;12.65;;;1.70;99.90;;;;;;5082953;28;20276;-60
2024/03/07 00:58:52;;;;;;;18.17;12.68;;;1.70;99.90;;;;;;5081166;28;20221;-59
2024/03/07 01:01:19;;;;;;;18.35;12.02;;;1.70;99.90;;;;;;5081609;28;20212;-61
2024/03/07 01:03:47;;;;;;;15.70;11.77;;;1.60;99.90;;;;;;5077194;28;20201;-61
2024/03/07 01:06:14;;;;;;;18.52;12.70;;;1.60;99.90;;;;;;5077112;28;20205;-60
2024/03/07 01:08:41;;;;;;;16.02;12.30;;;1.70;99.90;;;;;;5078870;28;20308;-61
2024/03/07 01:11:11;;;;;;;16.70;12.25;;;1.70;99.90;;;;;;5076971;28;20200;-62
2024/03/07 01:13:38;;;;;;;19.08;12.07;;;1.70;99.90;;;;;;5077796;28;20203;-61
2024/03/07 01:16:06;;;;;;;19.75;14.85;;;1.80;99.90;;;;;;5077173;28;20275;-61
2024/03/07 01:18:33;;;;;;;20.35;12.55;;;1.80;99.90;;;;;;5076492;28;20221;-61
2024/03/07 01:21:01;;;;;;;15.93;11.50;;;1.80;99.90;;;;;;5076510;28;20259;-61
2024/03/07 01:23:29;;;;;;;18.92;12.60;;;1.80;99.90;;;;;;5091420;28;20207;-61
2024/03/07 01:25:56;;;;;;;21.73;14.10;;;1.80;99.90;;;;;;5094875;28;20189;-61
2024/03/07 01:28:23;;;;;;;17.38;13.05;;;1.80;99.90;;;;;;5078521;28;20197;-61
2024/03/07 01:30:50;;;;;;;19.02;12.50;;;1.70;99.90;;;;;;5078721;28;20211;-61
2024/03/07 01:33:17;;;;;;;17.70;12.07;;;1.70;99.90;;;;;;5078063;28;20221;-62
2024/03/07 01:35:44;;;;;;;21.42;14.10;;;1.60;99.90;;;;;;5076694;28;20224;-61
2024/03/07 01:38:13;;;;;;;17.85;12.25;;;1.60;99.90;;;;;;5076755;28;20702;-60
2024/03/07 01:40:40;;;;;;;16.20;12.00;;;1.60;99.90;;;;;;5076040;28;20201;-61
2024/03/07 01:43:07;;;;;;;18.77;11.90;;;1.50;99.90;;;;;;5076366;28;20236;-61
2024/03/07 01:45:36;;;;;;;18.50;13.02;;;1.50;99.90;;;;;;5076729;28;20208;-61
2024/03/07 01:48:04;;;;;;;22.02;13.07;;;1.50;99.90;;;;;;5078156;28;20675;-61
2024/03/07 01:50:31;;;;;;;18.17;12.68;;;1.40;99.90;;;;;;5082835;28;20208;-61
2024/03/07 01:52:58;;;;;;;21.40;13.88;;;1.40;99.90;;;;;;5084980;28;20221;-61
2024/03/07 01:55:27;;;;;;;17.95;12.68;;;1.40;99.90;;;;;;5083158;28;20220;-61
2024/03/07 01:57:57;;;;;;;18.92;12.93;;;1.40;99.90;;;;;;5079302;28;20212;-60
2024/03/07 02:00:24;;;;;;;17.63;12.40;;;1.30;99.90;;;;;;5076941;28;20201;-61
2024/03/07 02:02:51;;;;;;;15.80;11.88;;;1.30;99.90;;;;;;5076567;28;20221;-60
2024/03/07 02:05:17;;;;;;;16.40;12.30;;;1.30;99.90;;;;;;5079478;28;20205;-61
2024/03/07 02:07:44;;;;;;;17.90;12.88;;;1.20;99.90;;;;;;5079935;28;20209;-61
2024/03/07 02:10:11;;;;;;;20.27;13.68;;;1.20;99.90;;;;;;5078135;28;20667;-61
2024/03/07 02:12:39;;;;;;;16.88;12.80;;;1.20;99.90;;;;;;5076409;28;20228;-61
2024/03/07 02:15:06;;;;;;;20.13;13.93;;;1.20;99.90;;;;;;5076333;28;20205;-60
2024/03/07 02:17:33;;;;;;;17.77;13.40;;;1.20;99.90;;;;;;5076338;28;20209;-60
2024/03/07 02:20:00;;;;;;;21.13;12.80;;;1.20;99.90;;;;;;5076469;28;20225;-61
2024/03/07 02:22:28;;;;;;;18.60;13.60;;;1.20;99.90;;;;;;5076181;28;20217;-60
2024/03/07 02:24:53;;;;;;;23.77;15.02;;;1.10;99.90;;;;;;5076255;28;20590;-61
2024/03/07 02:27:20;;;;;;;18.33;13.73;;;1.10;99.90;;;;;;5076142;28;20197;-60
2024/03/07 02:29:48;;;;;;;19.42;13.60;;;1.10;99.90;;;;;;5077717;28;20201;-61
2024/03/07 02:32:15;;;;;;;20.27;15.27;;;1.10;99.90;;;;;;5077988;28;20631;-60
2024/03/07 02:34:43;;;;;;;21.92;14.35;;;1.10;99.90;;;;;;5078287;28;20204;-61
2024/03/07 02:37:10;;;;;;;20.15;14.82;;;1.10;99.90;;;;;;5077611;28;20251;-61
2024/03/07 02:39:38;;;;;;;23.85;15.48;;;1.00;99.90;;;;;;5078742;28;20216;-61
2024/03/07 02:42:05;;;;;;;23.02;14.65;;;1.00;99.90;;;;;;5077290;28;20736;-62
2024/03/07 02:44:32;;;;;;;22.45;14.38;;;1.00;99.90;;;;;;5077727;28;20205;-60
2024/03/07 02:47:02;;;;;;;21.02;15.05;;;0.90;99.90;;;;;;5078351;28;20201;-60
2024/03/07 02:49:29;;;;;;;21.50;14.02;;;0.90;99.90;;;;;;5078156;28;20579;-60
2024/03/07 02:51:56;;;;;;;22.52;15.00;;;0.90;99.90;;;;;;5075918;28;20232;-60
2024/03/07 02:54:23;;;;;;;23.30;15.65;;;0.80;99.90;;;;;;5075453;28;20205;-60
2024/03/07 02:56:51;;;;;;;19.77;14.07;;;0.80;99.90;;;;;;5075379;28;20205;-61
2024/03/07 02:59:17;;;;;;;21.05;15.55;;;0.80;99.90;;;;;;5075556;28;20216;-61
2024/03/07 03:01:44;;;;;;;22.27;16.42;;;0.80;99.90;;;;;;5076147;28;20217;-61
2024/03/07 03:04:11;;;;;;;20.00;14.75;;;0.80;99.90;;;;;;5075764;28;20201;-60
2024/03/07 03:06:39;;;;;;;23.05;15.85;;;0.80;99.90;;;;;;5075069;28;20197;-60
2024/03/07 03:09:05;;;;;;;22.77;17.08;;;0.80;99.90;;;;;;5074605;28;20578;-64
2024/03/07 03:11:32;;;;;;;24.02;16.45;;;0.80;99.90;;;;;;5074433;28;20240;-61
2024/03/07 03:14:00;;;;;;;20.50;15.45;;;0.80;99.90;;;;;;5077218;28;20209;-60
2024/03/07 03:16:27;;;;;;;23.83;16.00;;;0.80;99.90;;;;;;5093587;28;20201;-61
2024/03/07 03:18:54;;;;;;;22.30;15.90;;;0.80;99.90;;;;;;5087455;28;20216;-62
2024/03/07 03:21:21;;;;;;;18.17;13.90;;;0.80;99.90;;;;;;5076260;28;20201;-60
2024/03/07 03:23:48;;;;;;;23.05;16.33;;;0.90;99.90;;;;;;5075250;28;20201;-60
2024/03/07 03:26:16;;;;;;;24.38;15.15;;;0.90;99.90;;;;;;5075617;28;20200;-60
2024/03/07 03:28:43;;;;;;;24.77;17.58;;;1.00;99.90;;;;;;5074996;28;20254;-61
2024/03/07 03:31:13;;;;;;;21.15;15.88;;;1.10;99.90;;;;;;5074960;28;20205;-60
2024/03/07 03:33:40;;;;;;;26.60;17.50;;;1.10;99.90;;;;;;5074247;28;20558;-61
2024/03/07 03:36:08;;;;;;;29.90;16.48;;;1.20;99.90;;;;;;5074369;28;20220;-60
2024/03/07 03:38:34;;;;;;;25.45;17.08;;;1.30;99.90;;;;;;5073515;28;20713;-60
2024/03/07 03:41:01;;;;;;;21.70;14.98;;;1.30;99.90;;;;;;5073768;28;20605;-61
2024/03/07 03:43:28;;;;;;;21.33;15.60;;;1.40;99.90;;;;;;5074615;28;20205;-61
2024/03/07 03:45:55;;;;;;;23.50;16.20;;;1.50;99.90;;;;;;5073959;28;20201;-61
2024/03/07 03:48:24;;;;;;;23.48;15.48;;;1.60;99.90;;;;;;5074841;28;20209;-60
2024/03/07 03:50:50;;;;;;;25.02;16.45;;;1.60;99.90;;;;;;5074338;28;20576;-60
2024/03/07 03:53:17;;;;;;;22.00;15.75;;;1.70;99.90;;;;;;5073920;28;20233;-61
2024/03/07 03:55:44;;;;;;;20.83;15.45;;;1.70;99.90;;;;;;5073825;28;20495;-61
2024/03/07 03:58:11;;;;;;;20.42;14.32;;;1.70;99.90;;;;;;5074194;28;20207;-62
2024/03/07 04:00:39;;;;;;;23.08;16.73;;;1.70;99.90;;;;;;5073677;28;20595;-61
2024/03/07 04:03:06;;;;;;;25.65;16.35;;;1.70;99.90;;;;;;5074079;28;20256;-60
2024/03/07 04:05:34;;;;;;;26.80;16.75;;;1.70;99.90;;;;;;5074402;28;20397;-60
2024/03/07 04:08:01;;;;;;;18.98;14.65;;;1.80;99.90;;;;;;5074803;28;20332;-60
2024/03/07 04:13:18;;;;;;;22.85;16.05;;;1.70;99.90;;;;;;5092534;28;20573;-60
2024/03/07 04:15:45;;;;;;;26.45;18.27;;;1.70;99.90;;;;;;5094259;28;20233;-60
2024/03/07 04:18:12;;;;;;;22.13;16.42;;;1.70;99.90;;;;;;5094393;28;20241;-60
2024/03/07 04:20:39;;;;;;;24.92;17.40;;;1.70;99.90;;;;;;5093936;28;20207;-61
2024/03/07 04:23:05;;;;;;;28.83;16.00;;;1.70;99.90;;;;;;5091970;28;20212;-60
2024/03/07 04:28:00;;;;;;;22.52;14.98;;;1.80;99.90;;;;;;5091494;22;20629;-61
2024/03/07 04:30:28;;;;;;;26.90;16.83;;;1.70;99.90;;;;;;5070204;28;20204;-59
2024/03/07 04:32:54;;;;;;;23.48;16.05;;;1.70;99.90;;;;;;5069853;28;20216;-61
2024/03/07 04:35:21;;;;;;;23.70;16.67;;;1.80;99.90;;;;;;5069806;28;20204;-60
2024/03/07 04:37:48;;;;;;;27.60;18.17;;;1.80;99.90;;;;;;5070273;28;20610;-61
2024/03/07 04:40:18;;;;;;;26.55;16.52;;;1.70;99.90;;;;;;5069816;28;20216;-61
2024/03/07 04:42:46;;;;;;;24.52;16.90;;;1.80;99.90;;;;;;5070174;28;20188;-62
2024/03/07 04:45:14;;;;;;;24.90;16.85;;;1.70;99.90;;;;;;5069987;28;20263;-61
2024/03/07 04:47:42;;;;;;;24.65;16.42;;;1.80;99.90;;;;;;5069883;28;20221;-61
2024/03/07 04:50:10;;;;;;;21.48;16.00;;;1.80;99.90;;;;;;5069646;28;20207;-61
2024/03/07 04:52:39;;;;;;;26.42;17.35;;;1.80;99.90;;;;;;5069244;28;20629;-61
2024/03/07 04:55:08;;;;;;;27.77;18.25;;;1.90;99.90;;;;;;5069298;28;20208;-60
2024/03/07 04:57:35;;;;;;;26.20;17.92;;;1.90;99.90;;;;;;5069356;28;20220;-61
2024/03/07 05:00:03;;;;;;;26.25;18.02;;;1.90;99.90;;;;;;5069289;28;20263;-62
2024/03/07 05:02:30;;;;;;;30.33;17.60;;;2.00;99.90;;;;;;5127685;22;20246;-61
2024/03/07 05:04:59;;;;;;;25.98;17.42;;;2.00;99.90;;;;;;5093735;28;20225;-61
2024/03/07 05:07:26;;;;;;;28.45;17.30;;;2.00;99.90;;;;;;5105413;28;20209;-61
2024/03/07 05:09:53;;;;;;;23.60;15.93;;;2.00;99.90;;;;;;5101643;28;20636;-60
2024/03/07 05:12:20;;;;;;;29.40;17.52;;;2.10;99.90;;;;;;5090176;28;20223;-61
2024/03/07 05:14:46;;;;;;;27.02;19.02;;;2.10;99.90;;;;;;5090429;28;20196;-59
2024/03/07 05:17:13;;;;;;;23.67;17.92;;;2.10;99.90;;;;;;5090614;28;20204;-60
2024/03/07 05:19:40;;;;;;;27.50;18.17;;;2.10;99.90;;;;;;5090821;28;20207;-60
2024/03/07 05:22:13;;;;;;;24.40;17.63;;;2.20;99.90;;;;;;5089799;28;20573;-61
2024/03/07 05:24:41;;;;;;;24.35;17.67;;;2.20;99.90;;;;;;5076412;28;20185;-61
2024/03/07 05:27:11;;;;;;;25.00;17.05;;;2.30;99.90;;;;;;5076117;28;20288;-60
2024/03/07 05:29:38;;;;;;;29.98;20.00;;;2.30;99.90;;;;;;5076536;28;20201;-59
2024/03/07 05:32:22;;;;;;;29.73;20.05;;;2.40;99.90;;;;;;5076378;28;20687;-60
2024/03/07 05:34:48;;;;;;;33.22;20.65;;;2.40;99.90;;;;;;5076621;28;20195;-61
2024/03/07 05:37:16;;;;;;;35.42;19.70;;;2.40;99.90;;;;;;5076033;28;20220;-61
2024/03/07 05:39:43;;;;;;;31.77;20.17;;;2.50;99.90;;;;;;5076210;28;20570;-61
2024/03/07 05:42:13;;;;;;;34.22;19.85;;;2.50;99.90;;;;;;5075823;28;20710;-61
2024/03/07 05:44:41;;;;;;;29.70;18.52;;;2.60;99.90;;;;;;5077048;28;20582;-60
2024/03/07 05:47:08;;;;;;;28.85;18.90;;;2.60;99.90;;;;;;5075710;28;20564;-61
2024/03/07 05:49:36;;;;;;;32.88;19.85;;;2.60;99.90;;;;;;5075944;28;20225;-60
2024/03/07 05:52:03;;;;;;;36.38;20.30;;;2.60;99.90;;;;;;5078637;28;20323;-60
2024/03/07 05:54:31;;;;;;;33.13;19.60;;;2.60;99.90;;;;;;5077023;28;20216;-60
2024/03/07 05:56:58;;;;;;;33.72;20.73;;;2.60;99.90;;;;;;5075546;28;20689;-61
2024/03/07 05:59:24;;;;;;;35.97;22.63;;;2.60;99.90;;;;;;5075959;28;20205;-60
2024/03/07 06:01:51;;;;;;;42.33;24.80;;;2.60;99.90;;;;;;5075793;28;20725;-60
2024/03/07 06:04:18;;;;;;;41.33;23.27;;;2.60;99.90;;;;;;5076714;28;20628;-60
2024/03/07 06:06:46;;;;;;;41.90;22.75;;;2.70;99.90;;;;;;5077185;28;20208;-60
2024/03/07 06:09:14;;;;;;;38.00;22.58;;;2.70;99.90;;;;;;5076911;28;20228;-60
2024/03/07 06:11:42;;;;;;;52.75;26.35;;;2.70;99.90;;;;;;5077545;28;20584;-61
2024/03/07 06:14:12;;;;;;;57.67;25.98;;;2.70;99.90;;;;;;5077770;28;20255;-61
2024/03/07 06:16:40;;;;;;;48.05;24.92;;;2.70;99.90;;;;;;5077433;28;20238;-61
2024/03/07 06:19:09;;;;;;;39.95;26.15;;;2.80;99.90;;;;;;5077733;28;20232;-60
2024/03/07 06:21:36;;;;;;;48.10;25.38;;;2.80;99.90;;;;;;5077186;28;20225;-60
2024/03/07 06:24:04;;;;;;;41.80;23.55;;;2.90;99.90;;;;;;5077417;28;20216;-60
2024/03/07 06:26:45;;;;;;;50.72;24.83;;;2.90;99.90;;;;;;5076644;28;20235;-60
2024/03/07 06:29:15;;;;;;;41.35;24.65;;;2.90;99.90;;;;;;5076802;28;20189;-61
2024/03/07 06:31:42;;;;;;;48.65;24.40;;;3.00;99.90;;;;;;5076311;28;20274;-60
2024/03/07 06:34:10;;;;;;;51.10;25.98;;;3.00;99.90;;;;;;5076343;28;20209;-61
2024/03/07 06:36:37;;;;;;;50.75;27.23;;;3.00;99.90;;;;;;5078358;28;20204;-60
2024/03/07 06:39:04;;;;;;;46.75;26.35;;;3.10;99.90;;;;;;5078630;28;20224;-61
2024/03/07 06:41:31;;;;;;;51.13;28.10;;;3.10;99.90;;;;;;5077727;28;20259;-62
2024/03/07 06:43:58;;;;;;;49.53;26.60;;;3.10;99.90;;;;;;5076845;28;20205;-62
2024/03/07 06:46:26;;;;;;;47.00;26.33;;;3.20;99.90;;;;;;5076070;28;20579;-61
2024/03/07 06:48:53;;;;;;;57.67;27.65;;;3.20;99.90;;;;;;5079697;28;20208;-62
2024/03/07 06:51:20;;;;;;;45.72;25.30;;;3.30;99.90;;;;;;5081570;28;20225;-61
2024/03/07 06:53:47;;;;;;;53.30;27.48;;;3.30;99.90;;;;;;5081455;28;20232;-60
2024/03/07 06:56:14;;;;;;;64.53;28.98;;;3.40;99.90;;;;;;5087301;28;20201;-60
2024/03/07 06:58:42;;;;;;;57.85;31.00;;;3.50;99.90;;;;;;5086429;28;20208;-61
2024/03/07 07:01:10;;;;;;;56.25;29.02;;;3.50;99.90;;;;;;5078784;28;20260;-62
2024/03/07 07:03:38;;;;;;;58.22;28.08;;;3.60;99.90;;;;;;5082346;28;20186;-61
2024/03/07 07:06:06;;;;;;;53.17;28.55;;;3.60;99.90;;;;;;5079849;28;20197;-60
2024/03/07 07:08:33;;;;;;;52.35;27.00;;;3.70;99.90;;;;;;5078300;28;20208;-61
2024/03/07 07:11:00;;;;;;;59.25;28.58;;;3.70;99.90;;;;;;5078476;28;20714;-61
2024/03/07 07:13:27;;;;;;;55.13;29.33;;;3.80;99.90;;;;;;5081010;28;20698;-61
2024/03/07 07:15:54;;;;;;;50.33;28.77;;;3.80;99.90;;;;;;5082679;28;20208;-60
2024/03/07 07:18:21;;;;;;;62.95;29.48;;;3.90;99.90;;;;;;5080916;28;20227;-62
2024/03/07 07:20:51;;;;;;;52.78;26.48;;;3.90;99.90;;;;;;5084751;28;20201;-61
2024/03/07 07:23:19;;;;;;;54.22;28.13;;;3.90;99.90;;;;;;5082911;28;20501;-61
2024/03/07 07:25:46;;;;;;;53.28;27.42;;;4.00;99.90;;;;;;5083479;28;20227;-61
2024/03/07 07:28:13;;;;;;;57.78;26.83;;;4.00;99.90;;;;;;5082710;28;20280;-61
2024/03/07 07:30:40;;;;;;;58.20;29.73;;;4.00;99.90;;;;;;5084144;28;20565;-62
2024/03/07 07:33:06;;;;;;;50.92;27.33;;;4.10;99.90;;;;;;5085591;28;20217;-61
2024/03/07 07:35:34;;;;;;;53.60;28.05;;;4.10;99.90;;;;;;5083343;28;20259;-61
2024/03/07 07:38:02;;;;;;;55.88;28.65;;;4.10;99.90;;;;;;5076016;28;20578;-61
2024/03/07 07:40:31;;;;;;;57.20;28.33;;;4.10;99.90;;;;;;5075255;28;20216;-61
2024/03/07 07:42:57;;;;;;;61.42;25.70;;;4.20;99.90;;;;;;5075337;28;20217;-61
2024/03/07 07:45:25;;;;;;;49.95;25.92;;;4.20;99.90;;;;;;5075271;28;20201;-61
2024/03/07 07:47:53;;;;;;;56.05;29.27;;;4.20;99.90;;;;;;5075232;28;20205;-61
2024/03/07 07:50:21;;;;;;;54.25;27.25;;;4.20;99.90;;;;;;5074833;28;20205;-60
2024/03/07 07:52:50;;;;;;;53.72;27.48;;;4.30;99.90;;;;;;5083308;28;20221;-61
2024/03/07 07:55:19;;;;;;;57.83;28.58;;;4.30;99.90;;;;;;5080548;28;20208;-62
2024/03/07 07:57:47;;;;;;;50.72;28.67;;;4.40;99.90;;;;;;5075747;28;20197;-61
2024/03/07 08:00:21;;;;;;;51.50;26.70;;;4.50;99.90;;;;;;5076812;28;20204;-60
2024/03/07 08:02:52;;;;;;;53.72;27.38;;;4.60;99.90;;;;;;5076476;28;20293;-60
2024/03/07 08:05:19;;;;;;;50.92;26.48;;;4.70;99.90;;;;;;5079985;28;20268;-60
2024/03/07 08:07:47;;;;;;;51.75;26.60;;;4.70;99.90;;;;;;5080010;28;20201;-62
2024/03/07 08:10:14;;;;;;;50.35;28.27;;;4.70;99.90;;;;;;5077698;28;20578;-61
2024/03/07 08:12:43;;;;;;;51.55;26.02;;;4.80;99.90;;;;;;5075647;28;20225;-61
2024/03/07 08:15:13;;;;;;;49.83;26.63;;;4.90;99.90;;;;;;5075179;28;20266;-61
2024/03/07 08:17:44;;;;;;;47.83;24.02;;;4.90;99.90;;;;;;5076409;28;20205;-62
2024/03/07 08:20:12;;;;;;;47.65;24.38;;;4.90;99.90;;;;;;5076803;28;20272;-61
2024/03/07 08:22:40;;;;;;;45.50;25.85;;;5.00;99.90;;;;;;5075116;28;20216;-62
2024/03/07 08:25:09;;;;;;;59.20;26.10;;;5.00;99.90;;;;;;5075602;28;20201;-62
2024/03/07 08:27:35;;;;;;;52.22;24.05;;;5.10;99.90;;;;;;5075818;28;20210;-61
2024/03/07 08:30:05;;;;;;;48.85;25.20;;;5.10;99.90;;;;;;5075424;28;20251;-62
2024/03/07 08:32:34;;;;;;;46.33;25.30;;;5.10;99.90;;;;;;5075821;28;20307;-61
2024/03/07 08:35:06;;;;;;;42.97;24.08;;;5.20;99.90;;;;;;5074753;28;20766;-61
2024/03/07 08:37:33;;;;;;;44.72;25.45;;;5.30;99.90;;;;;;5075265;28;20185;-61
2024/03/07 08:40:01;;;;;;;49.63;25.60;;;5.30;99.90;;;;;;5074778;28;20205;-61
2024/03/07 08:42:28;;;;;;;47.20;24.10;;;5.30;99.90;;;;;;5074087;28;20645;-61
2024/03/07 08:44:54;;;;;;;41.92;22.55;;;5.30;99.90;;;;;;5073369;28;20200;-61
2024/03/07 08:47:22;;;;;;;49.63;24.13;;;5.40;99.90;;;;;;5074438;28;20213;-61
2024/03/07 08:49:49;;;;;;;49.20;25.10;;;5.40;99.90;;;;;;5073825;28;20209;-61
2024/03/07 08:52:16;;;;;;;42.63;23.55;;;5.40;99.90;;;;;;5074057;28;20217;-61
2024/03/07 08:54:44;;;;;;;44.08;22.50;;;5.40;99.90;;;;;;5074310;28;20213;-61
2024/03/07 08:57:10;;;;;;;42.70;23.83;;;5.50;99.90;;;;;;5087020;28;20265;-61
2024/03/07 08:59:37;;;;;;;41.38;24.98;;;5.50;99.90;;;;;;5092821;28;20268;-61
2024/03/07 09:02:05;;;;;;;37.20;23.08;;;5.50;99.90;;;;;;5083130;28;20243;-61
2024/03/07 09:04:33;;;;;;;45.70;25.42;;;5.50;99.90;;;;;;5078520;28;20205;-61
2024/03/07 09:07:00;;;;;;;47.80;24.20;;;5.50;99.90;;;;;;5078004;28;20216;-61
2024/03/07 09:09:27;;;;;;;38.88;22.17;;;5.50;99.90;;;;;;5079248;28;20304;-62
2024/03/07 09:11:53;;;;;;;44.25;24.00;;;5.60;99.90;;;;;;5078507;28;20232;-61
2024/03/07 09:14:20;;;;;;;45.97;23.55;;;5.60;99.90;;;;;;5080276;28;20227;-61
2024/03/07 09:16:48;;;;;;;43.42;24.60;;;5.70;99.90;;;;;;5081548;28;20201;-61
2024/03/07 09:19:19;;;;;;;41.88;23.30;;;5.80;99.90;;;;;;5080226;28;20204;-61
2024/03/07 09:21:49;;;;;;;45.90;23.98;;;6.00;99.90;;;;;;5078532;28;20363;-62
2024/03/07 09:24:16;;;;;;;37.83;21.55;;;6.10;99.90;;;;;;5078999;28;20197;-61
2024/03/07 09:26:43;;;;;;;33.40;20.67;;;6.20;99.90;;;;;;5079799;28;20216;-62
2024/03/07 09:29:10;;;;;;;37.20;22.55;;;6.20;99.90;;;;;;5081194;28;20205;-61
2024/03/07 09:31:40;;;;;;;34.78;20.08;;;6.30;99.90;;;;;;5083165;28;20478;-62
2024/03/07 09:34:07;;;;;;;33.80;20.95;;;6.30;99.90;;;;;;5087472;28;20251;-60
2024/03/07 09:36:35;;;;;;;36.67;19.52;;;6.30;99.90;;;;;;5087133;28;20212;-61
2024/03/07 09:39:03;;;;;;;37.85;19.88;;;6.20;99.90;;;;;;5082839;28;20201;-61
2024/03/07 09:41:30;;;;;;;37.38;21.27;;;6.20;99.90;;;;;;5080127;28;20246;-62
2024/03/07 09:43:58;;;;;;;35.88;21.30;;;6.20;99.90;;;;;;5078762;28;20193;-61
2024/03/07 09:46:26;;;;;;;41.53;21.15;;;6.20;99.90;;;;;;5078458;28;20205;-61
2024/03/07 09:48:54;;;;;;;38.35;22.27;;;6.20;99.90;;;;;;5077535;28;20201;-62
2024/03/07 09:51:21;;;;;;;33.13;20.67;;;6.20;99.90;;;;;;5076885;28;20248;-61
2024/03/07 09:53:50;;;;;;;36.35;20.67;;;6.30;99.90;;;;;;5077104;28;20224;-63
2024/03/07 09:56:21;;;;;;;41.78;19.73;;;6.30;99.90;;;;;;5078188;28;20201;-60
2024/03/07 09:58:50;;;;;;;39.90;20.70;;;6.40;99.90;;;;;;5078649;28;20242;-62
2024/03/07 10:01:20;;;;;;;37.60;20.55;;;6.40;99.90;;;;;;5079371;28;20264;-61
2024/03/07 10:03:48;;;;;;;36.72;20.40;;;6.40;99.90;;;;;;5079531;28;20201;-62
2024/03/07 10:06:15;;;;;;;33.10;19.13;;;6.40;99.90;;;;;;5078750;28;20209;-61
2024/03/07 10:08:43;;;;;;;33.22;20.55;;;6.40;99.90;;;;;;5079272;28;20216;-62
2024/03/07 10:11:10;;;;;;;38.55;19.77;;;6.40;99.90;;;;;;5078621;28;20231;-62
2024/03/07 10:13:38;;;;;;;37.42;20.80;;;6.40;99.90;;;;;;5078509;28;20221;-60
2024/03/07 10:16:06;;;;;;;38.15;19.95;;;6.30;99.90;;;;;;5077016;28;20300;-62
2024/03/07 10:18:33;;;;;;;40.58;20.42;;;6.30;99.90;;;;;;5080263;28;20198;-62
2024/03/07 10:21:03;;;;;;;36.60;20.35;;;6.30;99.90;;;;;;5076862;28;20231;-62
2024/03/07 10:23:30;;;;;;;43.90;20.95;;;6.20;99.90;;;;;;5078500;28;20216;-61
2024/03/07 10:25:57;;;;;;;42.30;21.02;;;6.20;99.90;;;;;;5081892;28;20197;-61
2024/03/07 10:28:24;;;;;;;49.70;21.73;;;6.20;99.90;;;;;;5080362;28;20211;-62
2024/03/07 10:30:52;;;;;;;41.75;20.98;;;6.20;99.90;;;;;;5077999;28;20291;-59
2024/03/07 10:33:19;;;;;;;36.17;19.35;;;6.20;99.90;;;;;;5078835;28;20307;-61
2024/03/07 10:35:49;;;;;;;38.72;20.58;;;6.30;99.90;;;;;;5077734;28;20201;-61
2024/03/07 10:38:18;;;;;;;45.38;20.92;;;6.30;99.90;;;;;;5078185;28;20201;-62
2024/03/07 10:40:47;;;;;;;39.38;21.45;;;6.30;99.90;;;;;;5078351;28;20288;-62
2024/03/07 10:43:14;;;;;;;36.85;18.88;;;6.30;99.90;;;;;;5079689;28;20194;-61
2024/03/07 10:45:46;;;;;;;40.72;21.15;;;6.40;99.90;;;;;;5084888;28;20268;-61
2024/03/07 10:48:17;;;;;;;37.42;20.42;;;6.40;99.90;;;;;;5082766;28;20239;-62
2024/03/07 10:50:55;;;;;;;39.65;19.50;;;6.30;99.90;;;;;;5084202;28;20622;-60
2024/03/07 10:53:30;;;;;;;43.08;22.10;;;6.30;99.90;;;;;;5078051;28;20236;-62
2024/03/07 10:56:17;;;;;;;35.58;19.23;;;6.30;99.90;;;;;;5084902;28;20291;-62
2024/03/07 10:58:54;;;;;;;41.00;20.77;;;6.40;99.90;;;;;;5087332;28;20189;-61
2024/03/07 11:01:24;;;;;;;37.17;19.50;;;6.50;99.90;;;;;;5081772;28;20235;-62
2024/03/07 11:03:57;;;;;;;38.13;19.38;;;6.80;99.90;;;;;;5076888;28;20242;-61
2024/03/07 11:06:24;;;;;;;36.58;20.50;;;7.00;99.90;;;;;;5077314;28;20292;-63
2024/03/07 11:08:52;;;;;;;38.75;19.92;;;7.30;99.90;;;;;;5082431;28;20288;-65
2024/03/07 11:11:19;;;;;;;31.80;18.83;;;7.40;99.90;;;;;;5090428;28;20221;-61
2024/03/07 11:13:47;;;;;;;38.30;20.77;;;7.50;99.90;;;;;;5084174;28;20225;-61
2024/03/07 11:16:14;;;;;;;32.03;19.75;;;7.50;99.90;;;;;;5076042;28;20205;-62
2024/03/07 11:18:41;;;;;;;35.08;19.33;;;7.60;99.90;;;;;;5076741;28;20201;-61
2024/03/07 11:21:41;;;;;;;35.58;20.33;;;7.70;99.90;;;;;;5075774;28;20282;-61
2024/03/07 11:24:08;;;;;;;34.03;19.10;;;7.80;99.90;;;;;;5077064;28;20227;-62
2024/03/07 11:26:35;;;;;;;33.50;19.13;;;7.80;99.90;;;;;;5076946;28;20278;-62
2024/03/07 11:29:04;;;;;;;35.45;21.17;;;7.70;99.90;;;;;;5076473;28;20201;-61
2024/03/07 11:31:30;;;;;;;38.28;20.92;;;7.70;99.90;;;;;;5079537;28;20217;-62
2024/03/07 11:34:14;;;;;;;38.08;20.23;;;7.70;99.90;;;;;;5075623;28;20262;-61
2024/03/07 11:36:46;;;;;;;37.78;19.42;;;7.90;99.90;;;;;;5076538;28;20266;-62
2024/03/07 11:39:41;;;;;;;35.28;19.17;;;8.20;99.90;;;;;;5075930;28;20205;-60
2024/03/07 11:42:08;;;;;;;37.72;20.85;;;8.50;99.90;;;;;;5077729;28;20637;-61
2024/03/07 11:44:35;;;;;;;40.00;21.85;;;8.50;99.90;;;;;;5078096;28;20192;-62
2024/03/07 11:47:08;;;;;;;38.97;22.13;;;8.50;99.90;;;;;;5079810;28;20201;-61
2024/03/07 11:49:36;;;;;;;38.70;20.48;;;8.60;99.90;;;;;;5080824;28;20638;-62
2024/03/07 11:52:11;;;;;;;33.63;20.20;;;8.50;99.90;;;;;;5080883;28;20645;-61
2024/03/07 11:54:40;;;;;;;38.25;23.40;;;8.30;99.90;;;;;;5080465;28;20215;-62
2024/03/07 11:57:12;;;;;;;25.65;18.17;;;8.40;99.90;;;;;;5081806;28;20212;-62
2024/03/07 11:59:40;;;;;;;32.17;18.88;;;8.50;99.90;;;;;;5080827;28;20191;-62
2024/03/07 12:02:07;;;;;;;27.58;17.15;;;8.60;99.90;;;;;;5082115;28;20233;-60
2024/03/07 12:04:34;;;;;;;31.25;17.98;;;8.70;99.90;;;;;;5081365;28;20519;-62
2024/03/07 12:07:01;;;;;;;27.25;17.30;;;8.80;99.90;;;;;;5080636;28;20197;-62
2024/03/07 12:09:29;;;;;;;32.08;16.90;;;9.00;99.90;;;;;;5077692;28;20233;-61
2024/03/07 12:11:59;;;;;;;29.40;18.75;;;9.20;99.90;;;;;;5076763;28;20225;-60
2024/03/07 12:14:26;;;;;;;35.33;19.70;;;9.30;99.90;;;;;;5077995;28;20221;-62
2024/03/07 12:16:53;;;;;;;29.70;17.63;;;9.50;99.20;;;;;;5080072;28;20447;-61
2024/03/07 12:19:20;;;;;;;24.25;16.58;;;9.60;97.10;;;;;;5083699;28;20450;-61
2024/03/07 12:21:48;;;;;;;31.57;17.00;;;9.60;95.10;;;;;;5084008;28;20738;-60
2024/03/07 12:24:16;;;;;;;26.80;18.13;;;9.40;93.30;;;;;;5082186;28;20821;-60
2024/03/07 12:26:44;;;;;;;28.27;17.08;;;9.30;92.80;;;;;;5084883;28;20439;-62
2024/03/07 12:29:12;;;;;;;29.07;18.00;;;9.30;93.30;;;;;;5081160;28;20204;-61
2024/03/07 12:31:39;;;;;;;29.83;17.77;;;9.50;92.20;;;;;;5081001;28;20471;-62
2024/03/07 12:34:09;;;;;;;28.57;16.80;;;9.60;91.80;;;;;;5084249;28;20479;-61
2024/03/07 12:36:45;;;;;;;28.00;17.10;;;9.70;90.50;;;;;;5084337;28;20448;-60
2024/03/07 12:39:25;;;;;;;24.60;16.33;;;9.50;89.70;;;;;;5082722;28;20463;-60
2024/03/07 12:41:54;;;;;;;22.17;15.80;;;9.40;88.50;;;;;;5081639;28;20494;-63
2024/03/07 12:44:21;;;;;;;27.17;16.20;;;9.20;86.20;;;;;;5083922;28;20446;-62
2024/03/07 12:46:48;;;;;;;28.27;17.23;;;9.10;85.20;;;;;;5086554;28;20530;-61